sensor_id;sensor_type;location;lat;lon;timestamp;P1;durP1;ratioP1;P2;durP2;ratioP2
7017;SDS011;3549;42.162;24.726;2023-12-20T00:01:45;64.30;;;31.47;;
7017;SDS011;3549;42.162;24.726;2023-12-20T00:04:10;63.93;;;31.60;;
7017;SDS011;3549;42.162;24.726;2023-12-20T00:06:35;82.30;;;37.17;;
7017;SDS011;3549;42.162;24.726;2023-12-20T00:09:01;74.73;;;35.57;;
7017;SDS011;3549;42.162;24.726;2023-12-20T00:11:26;73.53;;;33.20;;
7017;SDS011;3549;42.162;24.726;2023-12-20T00:13:51;73.63;;;34.43;;
7017;SDS011;3549;42.162;24.726;2023-12-20T00:16:17;111.57;;;45.40;;
7017;SDS011;3549;42.162;24.726;2023-12-20T00:18:42;132.97;;;53.43;;
7017;SDS011;3549;42.162;24.726;2023-12-20T00:21:08;117.60;;;47.80;;
7017;SDS011;3549;42.162;24.726;2023-12-20T00:23:33;113.80;;;47.43;;
7017;SDS011;3549;42.162;24.726;2023-12-20T00:25:58;124.20;;;47.73;;
7017;SDS011;3549;42.162;24.726;2023-12-20T00:28:24;142.63;;;50.93;;
7017;SDS011;3549;42.162;24.726;2023-12-20T00:30:49;120.30;;;44.83;;
7017;SDS011;3549;42.162;24.726;2023-12-20T00:33:15;59.47;;;27.27;;
7017;SDS011;3549;42.162;24.726;2023-12-20T00:35:40;64.27;;;25.87;;
7017;SDS011;3549;42.162;24.726;2023-12-20T00:38:06;72.23;;;31.43;;
7017;SDS011;3549;42.162;24.726;2023-12-20T00:40:32;58.03;;;25.93;;
7017;SDS011;3549;42.162;24.726;2023-12-20T00:42:58;58.13;;;26.47;;
7017;SDS011;3549;42.162;24.726;2023-12-20T00:45:23;57.50;;;26.80;;
7017;SDS011;3549;42.162;24.726;2023-12-20T00:47:48;101.10;;;49.10;;
7017;SDS011;3549;42.162;24.726;2023-12-20T00:50:14;59.57;;;27.07;;
7017;SDS011;3549;42.162;24.726;2023-12-20T00:52:39;54.83;;;26.10;;
7017;SDS011;3549;42.162;24.726;2023-12-20T00:55:05;55.50;;;24.50;;
7017;SDS011;3549;42.162;24.726;2023-12-20T00:57:30;58.87;;;26.33;;
7017;SDS011;3549;42.162;24.726;2023-12-20T00:59:56;59.53;;;28.43;;
7017;SDS011;3549;42.162;24.726;2023-12-20T01:02:21;55.43;;;27.47;;
7017;SDS011;3549;42.162;24.726;2023-12-20T01:04:47;56.73;;;27.23;;
7017;SDS011;3549;42.162;24.726;2023-12-20T01:07:12;60.93;;;27.53;;
7017;SDS011;3549;42.162;24.726;2023-12-20T01:09:37;58.23;;;28.13;;
7017;SDS011;3549;42.162;24.726;2023-12-20T01:12:03;56.37;;;29.00;;
7017;SDS011;3549;42.162;24.726;2023-12-20T01:14:28;52.60;;;26.20;;
7017;SDS011;3549;42.162;24.726;2023-12-20T01:16:54;44.07;;;21.27;;
7017;SDS011;3549;42.162;24.726;2023-12-20T01:19:19;58.43;;;25.43;;
7017;SDS011;3549;42.162;24.726;2023-12-20T01:21:44;43.73;;;20.60;;
7017;SDS011;3549;42.162;24.726;2023-12-20T01:24:10;37.87;;;19.40;;
7017;SDS011;3549;42.162;24.726;2023-12-20T01:26:35;41.33;;;18.23;;
7017;SDS011;3549;42.162;24.726;2023-12-20T01:29:01;38.53;;;19.30;;
7017;SDS011;3549;42.162;24.726;2023-12-20T01:31:26;41.70;;;18.97;;
7017;SDS011;3549;42.162;24.726;2023-12-20T01:33:52;58.20;;;23.97;;
7017;SDS011;3549;42.162;24.726;2023-12-20T01:36:18;42.27;;;19.20;;
7017;SDS011;3549;42.162;24.726;2023-12-20T01:38:43;40.17;;;18.30;;
7017;SDS011;3549;42.162;24.726;2023-12-20T01:41:08;51.20;;;23.33;;
7017;SDS011;3549;42.162;24.726;2023-12-20T01:43:34;46.80;;;22.30;;
7017;SDS011;3549;42.162;24.726;2023-12-20T01:45:59;43.07;;;22.10;;
7017;SDS011;3549;42.162;24.726;2023-12-20T01:48:25;38.40;;;17.87;;
7017;SDS011;3549;42.162;24.726;2023-12-20T01:50:52;40.23;;;18.40;;
7017;SDS011;3549;42.162;24.726;2023-12-20T01:53:19;37.37;;;17.37;;
7017;SDS011;3549;42.162;24.726;2023-12-20T01:55:48;46.60;;;19.90;;
7017;SDS011;3549;42.162;24.726;2023-12-20T01:58:16;43.57;;;19.10;;
7017;SDS011;3549;42.162;24.726;2023-12-20T02:00:42;42.33;;;19.70;;
7017;SDS011;3549;42.162;24.726;2023-12-20T02:03:07;43.00;;;19.20;;
7017;SDS011;3549;42.162;24.726;2023-12-20T02:05:34;38.77;;;18.40;;
7017;SDS011;3549;42.162;24.726;2023-12-20T02:08:01;39.67;;;18.53;;
7017;SDS011;3549;42.162;24.726;2023-12-20T02:10:26;43.87;;;18.83;;
7017;SDS011;3549;42.162;24.726;2023-12-20T02:12:52;40.03;;;18.13;;
7017;SDS011;3549;42.162;24.726;2023-12-20T02:15:17;37.03;;;17.00;;
7017;SDS011;3549;42.162;24.726;2023-12-20T02:17:43;41.77;;;18.03;;
7017;SDS011;3549;42.162;24.726;2023-12-20T02:20:09;37.53;;;16.13;;
7017;SDS011;3549;42.162;24.726;2023-12-20T02:22:35;38.83;;;18.30;;
7017;SDS011;3549;42.162;24.726;2023-12-20T02:25:00;44.00;;;18.77;;
7017;SDS011;3549;42.162;24.726;2023-12-20T02:27:25;40.70;;;19.30;;
7017;SDS011;3549;42.162;24.726;2023-12-20T02:29:52;41.70;;;19.13;;
7017;SDS011;3549;42.162;24.726;2023-12-20T02:32:18;40.33;;;18.03;;
7017;SDS011;3549;42.162;24.726;2023-12-20T02:34:44;38.03;;;18.13;;
7017;SDS011;3549;42.162;24.726;2023-12-20T02:37:09;38.00;;;17.97;;
7017;SDS011;3549;42.162;24.726;2023-12-20T02:39:35;36.40;;;18.20;;
7017;SDS011;3549;42.162;24.726;2023-12-20T02:42:00;38.17;;;17.43;;
7017;SDS011;3549;42.162;24.726;2023-12-20T02:44:25;43.57;;;17.80;;
7017;SDS011;3549;42.162;24.726;2023-12-20T02:46:51;36.47;;;17.20;;
7017;SDS011;3549;42.162;24.726;2023-12-20T02:49:16;35.53;;;17.80;;
7017;SDS011;3549;42.162;24.726;2023-12-20T02:51:42;37.97;;;18.53;;
7017;SDS011;3549;42.162;24.726;2023-12-20T02:54:07;39.57;;;18.17;;
7017;SDS011;3549;42.162;24.726;2023-12-20T02:56:33;36.93;;;17.93;;
7017;SDS011;3549;42.162;24.726;2023-12-20T02:58:58;43.00;;;17.93;;
7017;SDS011;3549;42.162;24.726;2023-12-20T03:01:23;41.70;;;19.03;;
7017;SDS011;3549;42.162;24.726;2023-12-20T03:03:49;39.97;;;18.53;;
7017;SDS011;3549;42.162;24.726;2023-12-20T03:06:18;41.33;;;19.27;;
7017;SDS011;3549;42.162;24.726;2023-12-20T03:08:44;35.77;;;17.10;;
7017;SDS011;3549;42.162;24.726;2023-12-20T03:11:10;39.43;;;18.40;;
7017;SDS011;3549;42.162;24.726;2023-12-20T03:13:35;35.13;;;16.87;;
7017;SDS011;3549;42.162;24.726;2023-12-20T03:16:00;64.63;;;30.97;;
7017;SDS011;3549;42.162;24.726;2023-12-20T03:18:26;114.93;;;50.37;;
7017;SDS011;3549;42.162;24.726;2023-12-20T03:20:53;79.13;;;35.47;;
7017;SDS011;3549;42.162;24.726;2023-12-20T03:23:18;73.10;;;32.47;;
7017;SDS011;3549;42.162;24.726;2023-12-20T03:25:43;72.10;;;30.30;;
7017;SDS011;3549;42.162;24.726;2023-12-20T03:28:09;43.47;;;20.67;;
7017;SDS011;3549;42.162;24.726;2023-12-20T03:30:34;54.00;;;22.47;;
7017;SDS011;3549;42.162;24.726;2023-12-20T03:33:00;46.20;;;22.27;;
7017;SDS011;3549;42.162;24.726;2023-12-20T03:35:25;49.40;;;22.80;;
7017;SDS011;3549;42.162;24.726;2023-12-20T03:37:51;66.50;;;28.63;;
7017;SDS011;3549;42.162;24.726;2023-12-20T03:40:16;70.03;;;31.17;;
7017;SDS011;3549;42.162;24.726;2023-12-20T03:42:42;70.37;;;31.73;;
7017;SDS011;3549;42.162;24.726;2023-12-20T03:45:07;58.90;;;27.90;;
7017;SDS011;3549;42.162;24.726;2023-12-20T03:47:33;49.63;;;22.67;;
7017;SDS011;3549;42.162;24.726;2023-12-20T03:49:59;37.97;;;19.77;;
7017;SDS011;3549;42.162;24.726;2023-12-20T03:52:24;36.63;;;16.87;;
7017;SDS011;3549;42.162;24.726;2023-12-20T03:54:49;38.73;;;18.67;;
7017;SDS011;3549;42.162;24.726;2023-12-20T03:57:15;33.13;;;15.83;;
7017;SDS011;3549;42.162;24.726;2023-12-20T03:59:40;40.07;;;17.17;;
7017;SDS011;3549;42.162;24.726;2023-12-20T04:02:05;31.63;;;15.50;;
7017;SDS011;3549;42.162;24.726;2023-12-20T04:04:31;32.70;;;14.80;;
7017;SDS011;3549;42.162;24.726;2023-12-20T04:06:56;31.80;;;15.57;;
7017;SDS011;3549;42.162;24.726;2023-12-20T04:09:22;42.00;;;17.27;;
7017;SDS011;3549;42.162;24.726;2023-12-20T04:11:47;87.47;;;34.77;;
7017;SDS011;3549;42.162;24.726;2023-12-20T04:14:13;68.93;;;31.37;;
7017;SDS011;3549;42.162;24.726;2023-12-20T04:16:39;75.97;;;29.83;;
7017;SDS011;3549;42.162;24.726;2023-12-20T04:19:04;102.97;;;36.53;;
7017;SDS011;3549;42.162;24.726;2023-12-20T04:21:30;62.00;;;24.57;;
7017;SDS011;3549;42.162;24.726;2023-12-20T04:23:55;45.03;;;18.47;;
7017;SDS011;3549;42.162;24.726;2023-12-20T04:26:21;51.73;;;22.57;;
7017;SDS011;3549;42.162;24.726;2023-12-20T04:28:47;50.63;;;22.67;;
7017;SDS011;3549;42.162;24.726;2023-12-20T04:31:12;58.87;;;25.70;;
7017;SDS011;3549;42.162;24.726;2023-12-20T04:33:38;317.30;;;125.10;;
7017;SDS011;3549;42.162;24.726;2023-12-20T04:36:04;54.90;;;25.37;;
7017;SDS011;3549;42.162;24.726;2023-12-20T04:38:29;54.20;;;23.63;;
7017;SDS011;3549;42.162;24.726;2023-12-20T04:40:55;61.27;;;27.57;;
7017;SDS011;3549;42.162;24.726;2023-12-20T04:43:20;87.70;;;38.40;;
7017;SDS011;3549;42.162;24.726;2023-12-20T04:45:45;116.20;;;54.10;;
7017;SDS011;3549;42.162;24.726;2023-12-20T04:48:11;98.57;;;47.53;;
7017;SDS011;3549;42.162;24.726;2023-12-20T04:50:37;79.87;;;39.17;;
7017;SDS011;3549;42.162;24.726;2023-12-20T04:53:02;121.33;;;52.23;;
7017;SDS011;3549;42.162;24.726;2023-12-20T04:55:28;303.53;;;116.50;;
7017;SDS011;3549;42.162;24.726;2023-12-20T04:57:53;257.33;;;105.83;;
7017;SDS011;3549;42.162;24.726;2023-12-20T05:00:19;382.77;;;151.90;;
7017;SDS011;3549;42.162;24.726;2023-12-20T05:02:45;274.70;;;118.10;;
7017;SDS011;3549;42.162;24.726;2023-12-20T05:05:10;218.03;;;94.67;;
7017;SDS011;3549;42.162;24.726;2023-12-20T05:07:36;158.17;;;72.90;;
7017;SDS011;3549;42.162;24.726;2023-12-20T05:10:02;107.53;;;50.13;;
7017;SDS011;3549;42.162;24.726;2023-12-20T05:12:29;132.73;;;56.63;;
7017;SDS011;3549;42.162;24.726;2023-12-20T05:14:55;177.53;;;76.63;;
7017;SDS011;3549;42.162;24.726;2023-12-20T05:17:20;235.53;;;99.30;;
7017;SDS011;3549;42.162;24.726;2023-12-20T05:19:46;198.20;;;82.50;;
7017;SDS011;3549;42.162;24.726;2023-12-20T05:22:11;308.40;;;123.53;;
7017;SDS011;3549;42.162;24.726;2023-12-20T05:24:36;485.57;;;230.33;;
7017;SDS011;3549;42.162;24.726;2023-12-20T05:27:02;272.27;;;114.50;;
7017;SDS011;3549;42.162;24.726;2023-12-20T05:29:27;152.57;;;66.83;;
7017;SDS011;3549;42.162;24.726;2023-12-20T05:31:53;289.20;;;122.50;;
7017;SDS011;3549;42.162;24.726;2023-12-20T05:34:19;289.13;;;120.77;;
7017;SDS011;3549;42.162;24.726;2023-12-20T05:36:45;224.70;;;99.07;;
7017;SDS011;3549;42.162;24.726;2023-12-20T05:39:10;201.17;;;87.97;;
7017;SDS011;3549;42.162;24.726;2023-12-20T05:41:36;178.50;;;75.97;;
7017;SDS011;3549;42.162;24.726;2023-12-20T05:44:01;188.40;;;80.30;;
7017;SDS011;3549;42.162;24.726;2023-12-20T05:46:26;149.70;;;61.87;;
7017;SDS011;3549;42.162;24.726;2023-12-20T05:48:52;200.67;;;79.77;;
7017;SDS011;3549;42.162;24.726;2023-12-20T05:51:18;264.20;;;110.83;;
7017;SDS011;3549;42.162;24.726;2023-12-20T05:53:44;355.40;;;133.73;;
7017;SDS011;3549;42.162;24.726;2023-12-20T05:56:10;302.70;;;114.13;;
7017;SDS011;3549;42.162;24.726;2023-12-20T05:58:36;239.80;;;96.73;;
7017;SDS011;3549;42.162;24.726;2023-12-20T06:01:04;270.97;;;109.80;;
7017;SDS011;3549;42.162;24.726;2023-12-20T06:03:30;273.60;;;105.20;;
7017;SDS011;3549;42.162;24.726;2023-12-20T06:05:56;261.83;;;113.80;;
7017;SDS011;3549;42.162;24.726;2023-12-20T06:08:21;216.37;;;92.47;;
7017;SDS011;3549;42.162;24.726;2023-12-20T06:10:47;241.23;;;104.43;;
7017;SDS011;3549;42.162;24.726;2023-12-20T06:13:12;106.40;;;47.73;;
7017;SDS011;3549;42.162;24.726;2023-12-20T06:15:39;91.80;;;41.63;;
7017;SDS011;3549;42.162;24.726;2023-12-20T06:18:05;85.27;;;39.53;;
7017;SDS011;3549;42.162;24.726;2023-12-20T06:20:30;66.23;;;30.23;;
7017;SDS011;3549;42.162;24.726;2023-12-20T06:22:56;58.20;;;28.73;;
7017;SDS011;3549;42.162;24.726;2023-12-20T06:25:21;64.00;;;29.97;;
7017;SDS011;3549;42.162;24.726;2023-12-20T06:27:47;75.37;;;34.90;;
7017;SDS011;3549;42.162;24.726;2023-12-20T06:30:12;73.53;;;35.13;;
7017;SDS011;3549;42.162;24.726;2023-12-20T06:32:37;75.60;;;36.83;;
7017;SDS011;3549;42.162;24.726;2023-12-20T06:35:04;66.23;;;32.00;;
7017;SDS011;3549;42.162;24.726;2023-12-20T06:37:30;66.67;;;32.10;;
7017;SDS011;3549;42.162;24.726;2023-12-20T06:39:55;79.53;;;38.30;;
7017;SDS011;3549;42.162;24.726;2023-12-20T06:42:22;116.90;;;49.20;;
7017;SDS011;3549;42.162;24.726;2023-12-20T06:44:47;103.10;;;46.07;;
7017;SDS011;3549;42.162;24.726;2023-12-20T06:47:13;65.43;;;31.70;;
7017;SDS011;3549;42.162;24.726;2023-12-20T06:49:39;72.83;;;33.37;;
7017;SDS011;3549;42.162;24.726;2023-12-20T06:52:05;84.83;;;41.97;;
7017;SDS011;3549;42.162;24.726;2023-12-20T06:54:30;65.57;;;34.37;;
7017;SDS011;3549;42.162;24.726;2023-12-20T06:56:56;85.57;;;42.20;;
7017;SDS011;3549;42.162;24.726;2023-12-20T06:59:21;67.30;;;33.47;;
7017;SDS011;3549;42.162;24.726;2023-12-20T07:01:49;67.13;;;32.07;;
7017;SDS011;3549;42.162;24.726;2023-12-20T07:04:15;84.77;;;44.57;;
7017;SDS011;3549;42.162;24.726;2023-12-20T07:06:41;112.30;;;56.80;;
7017;SDS011;3549;42.162;24.726;2023-12-20T07:09:07;88.53;;;45.03;;
7017;SDS011;3549;42.162;24.726;2023-12-20T07:11:32;112.77;;;62.53;;
7017;SDS011;3549;42.162;24.726;2023-12-20T07:13:58;181.93;;;108.70;;
7017;SDS011;3549;42.162;24.726;2023-12-20T07:16:23;180.43;;;111.97;;
7017;SDS011;3549;42.162;24.726;2023-12-20T07:18:49;122.43;;;71.60;;
7017;SDS011;3549;42.162;24.726;2023-12-20T07:21:15;82.57;;;47.47;;
7017;SDS011;3549;42.162;24.726;2023-12-20T07:23:40;66.83;;;38.27;;
7017;SDS011;3549;42.162;24.726;2023-12-20T07:26:06;46.87;;;28.33;;
7017;SDS011;3549;42.162;24.726;2023-12-20T07:28:31;44.00;;;27.50;;
7017;SDS011;3549;42.162;24.726;2023-12-20T07:30:57;43.03;;;26.53;;
7017;SDS011;3549;42.162;24.726;2023-12-20T07:33:22;54.53;;;32.43;;
7017;SDS011;3549;42.162;24.726;2023-12-20T07:35:48;49.87;;;28.17;;
7017;SDS011;3549;42.162;24.726;2023-12-20T07:38:13;79.60;;;43.67;;
7017;SDS011;3549;42.162;24.726;2023-12-20T07:40:38;103.13;;;50.93;;
7017;SDS011;3549;42.162;24.726;2023-12-20T07:43:04;77.43;;;38.53;;
7017;SDS011;3549;42.162;24.726;2023-12-20T07:45:29;108.40;;;47.60;;
7017;SDS011;3549;42.162;24.726;2023-12-20T07:47:55;66.10;;;33.67;;
7017;SDS011;3549;42.162;24.726;2023-12-20T07:50:20;76.57;;;39.77;;
7017;SDS011;3549;42.162;24.726;2023-12-20T07:52:46;71.07;;;38.67;;
7017;SDS011;3549;42.162;24.726;2023-12-20T07:55:11;69.37;;;36.37;;
7017;SDS011;3549;42.162;24.726;2023-12-20T07:57:36;68.43;;;33.90;;
7017;SDS011;3549;42.162;24.726;2023-12-20T08:00:02;82.60;;;40.90;;
7017;SDS011;3549;42.162;24.726;2023-12-20T08:02:29;60.10;;;30.67;;
7017;SDS011;3549;42.162;24.726;2023-12-20T08:04:55;81.27;;;42.70;;
7017;SDS011;3549;42.162;24.726;2023-12-20T08:07:21;61.97;;;32.93;;
7017;SDS011;3549;42.162;24.726;2023-12-20T08:09:46;73.40;;;37.27;;
7017;SDS011;3549;42.162;24.726;2023-12-20T08:12:11;72.67;;;39.40;;
7017;SDS011;3549;42.162;24.726;2023-12-20T08:14:37;73.87;;;37.57;;
7017;SDS011;3549;42.162;24.726;2023-12-20T08:17:02;62.90;;;34.17;;
7017;SDS011;3549;42.162;24.726;2023-12-20T08:19:28;45.07;;;25.07;;
7017;SDS011;3549;42.162;24.726;2023-12-20T08:21:53;63.20;;;35.27;;
7017;SDS011;3549;42.162;24.726;2023-12-20T08:24:19;44.23;;;23.87;;
7017;SDS011;3549;42.162;24.726;2023-12-20T08:26:44;49.27;;;25.83;;
7017;SDS011;3549;42.162;24.726;2023-12-20T08:29:12;42.23;;;22.43;;
7017;SDS011;3549;42.162;24.726;2023-12-20T08:31:38;67.67;;;29.43;;
7017;SDS011;3549;42.162;24.726;2023-12-20T08:34:04;37.93;;;20.47;;
7017;SDS011;3549;42.162;24.726;2023-12-20T08:36:29;40.13;;;19.83;;
7017;SDS011;3549;42.162;24.726;2023-12-20T08:38:55;45.57;;;26.83;;
7017;SDS011;3549;42.162;24.726;2023-12-20T08:41:20;54.17;;;29.87;;
7017;SDS011;3549;42.162;24.726;2023-12-20T08:43:46;35.93;;;19.53;;
7017;SDS011;3549;42.162;24.726;2023-12-20T08:46:11;36.10;;;19.90;;
7017;SDS011;3549;42.162;24.726;2023-12-20T08:48:38;31.27;;;18.17;;
7017;SDS011;3549;42.162;24.726;2023-12-20T08:51:04;33.37;;;18.27;;
7017;SDS011;3549;42.162;24.726;2023-12-20T08:53:32;33.10;;;18.67;;
7017;SDS011;3549;42.162;24.726;2023-12-20T08:55:58;37.97;;;20.53;;
7017;SDS011;3549;42.162;24.726;2023-12-20T08:58:26;42.53;;;23.73;;
7017;SDS011;3549;42.162;24.726;2023-12-20T09:00:51;33.17;;;18.43;;
7017;SDS011;3549;42.162;24.726;2023-12-20T09:03:17;34.70;;;19.73;;
7017;SDS011;3549;42.162;24.726;2023-12-20T09:05:42;36.70;;;18.90;;
7017;SDS011;3549;42.162;24.726;2023-12-20T09:08:07;30.03;;;18.10;;
7017;SDS011;3549;42.162;24.726;2023-12-20T09:10:35;35.27;;;19.13;;
7017;SDS011;3549;42.162;24.726;2023-12-20T09:13:01;44.30;;;25.13;;
7017;SDS011;3549;42.162;24.726;2023-12-20T09:15:27;36.13;;;21.07;;
7017;SDS011;3549;42.162;24.726;2023-12-20T09:17:53;29.50;;;17.53;;
7017;SDS011;3549;42.162;24.726;2023-12-20T09:20:18;34.73;;;20.30;;
7017;SDS011;3549;42.162;24.726;2023-12-20T09:22:44;34.80;;;20.70;;
7017;SDS011;3549;42.162;24.726;2023-12-20T09:25:10;33.20;;;20.03;;
7017;SDS011;3549;42.162;24.726;2023-12-20T09:27:40;33.00;;;19.63;;
7017;SDS011;3549;42.162;24.726;2023-12-20T09:30:06;38.30;;;21.57;;
7017;SDS011;3549;42.162;24.726;2023-12-20T09:32:32;60.30;;;28.80;;
7017;SDS011;3549;42.162;24.726;2023-12-20T09:34:57;39.30;;;22.07;;
7017;SDS011;3549;42.162;24.726;2023-12-20T09:37:26;33.80;;;20.13;;
7017;SDS011;3549;42.162;24.726;2023-12-20T09:39:52;34.77;;;19.50;;
7017;SDS011;3549;42.162;24.726;2023-12-20T09:42:21;43.37;;;22.00;;
7017;SDS011;3549;42.162;24.726;2023-12-20T09:44:54;42.60;;;19.87;;
7017;SDS011;3549;42.162;24.726;2023-12-20T09:47:21;58.70;;;29.47;;
7017;SDS011;3549;42.162;24.726;2023-12-20T09:49:49;47.93;;;26.83;;
7017;SDS011;3549;42.162;24.726;2023-12-20T09:52:15;45.13;;;25.30;;
7017;SDS011;3549;42.162;24.726;2023-12-20T09:54:42;63.73;;;33.57;;
7017;SDS011;3549;42.162;24.726;2023-12-20T09:57:09;66.97;;;34.93;;
7017;SDS011;3549;42.162;24.726;2023-12-20T09:59:35;60.73;;;32.73;;
7017;SDS011;3549;42.162;24.726;2023-12-20T10:02:00;48.03;;;25.60;;
7017;SDS011;3549;42.162;24.726;2023-12-20T10:04:28;34.20;;;20.80;;
7017;SDS011;3549;42.162;24.726;2023-12-20T10:06:57;50.93;;;29.40;;
7017;SDS011;3549;42.162;24.726;2023-12-20T10:09:26;55.13;;;29.20;;
7017;SDS011;3549;42.162;24.726;2023-12-20T10:11:54;36.30;;;20.10;;
7017;SDS011;3549;42.162;24.726;2023-12-20T10:14:19;37.67;;;21.80;;
7017;SDS011;3549;42.162;24.726;2023-12-20T10:16:48;34.57;;;21.40;;
7017;SDS011;3549;42.162;24.726;2023-12-20T10:19:16;34.93;;;19.90;;
7017;SDS011;3549;42.162;24.726;2023-12-20T10:21:42;40.00;;;20.97;;
7017;SDS011;3549;42.162;24.726;2023-12-20T10:24:08;33.80;;;19.63;;
7017;SDS011;3549;42.162;24.726;2023-12-20T10:26:33;36.23;;;20.30;;
7017;SDS011;3549;42.162;24.726;2023-12-20T10:29:02;33.40;;;20.37;;
7017;SDS011;3549;42.162;24.726;2023-12-20T10:31:30;42.30;;;23.43;;
7017;SDS011;3549;42.162;24.726;2023-12-20T10:33:57;37.87;;;21.90;;
7017;SDS011;3549;42.162;24.726;2023-12-20T10:36:25;41.87;;;22.73;;
7017;SDS011;3549;42.162;24.726;2023-12-20T10:38:52;69.30;;;37.47;;
7017;SDS011;3549;42.162;24.726;2023-12-20T10:41:39;47.13;;;27.67;;
7017;SDS011;3549;42.162;24.726;2023-12-20T10:44:06;159.77;;;81.93;;
7017;SDS011;3549;42.162;24.726;2023-12-20T10:46:32;49.67;;;28.87;;
7017;SDS011;3549;42.162;24.726;2023-12-20T10:48:59;40.20;;;23.20;;
7017;SDS011;3549;42.162;24.726;2023-12-20T10:51:27;47.80;;;26.33;;
7017;SDS011;3549;42.162;24.726;2023-12-20T10:53:54;69.00;;;39.80;;
7017;SDS011;3549;42.162;24.726;2023-12-20T10:56:21;78.10;;;46.33;;
7017;SDS011;3549;42.162;24.726;2023-12-20T10:58:48;69.10;;;39.67;;
7017;SDS011;3549;42.162;24.726;2023-12-20T11:01:14;43.87;;;25.97;;
7017;SDS011;3549;42.162;24.726;2023-12-20T11:03:43;41.10;;;24.37;;
7017;SDS011;3549;42.162;24.726;2023-12-20T11:06:19;71.03;;;40.70;;
7017;SDS011;3549;42.162;24.726;2023-12-20T11:14:24;72.93;;;41.43;;
7017;SDS011;3549;42.162;24.726;2023-12-20T11:17:10;61.87;;;34.77;;
7017;SDS011;3549;42.162;24.726;2023-12-20T11:22:22;47.37;;;27.43;;
7017;SDS011;3549;42.162;24.726;2023-12-20T11:24:52;52.27;;;29.00;;
7017;SDS011;3549;42.162;24.726;2023-12-20T11:27:18;46.77;;;27.33;;
7017;SDS011;3549;42.162;24.726;2023-12-20T11:29:55;58.60;;;33.23;;
7017;SDS011;3549;42.162;24.726;2023-12-20T11:34:50;64.40;;;34.77;;
7017;SDS011;3549;42.162;24.726;2023-12-20T11:37:19;76.13;;;38.90;;
7017;SDS011;3549;42.162;24.726;2023-12-20T11:39:45;129.77;;;54.90;;
7017;SDS011;3549;42.162;24.726;2023-12-20T11:42:10;67.90;;;34.87;;
7017;SDS011;3549;42.162;24.726;2023-12-20T11:44:36;45.47;;;25.03;;
7017;SDS011;3549;42.162;24.726;2023-12-20T11:47:02;42.20;;;25.33;;
7017;SDS011;3549;42.162;24.726;2023-12-20T11:49:28;48.47;;;25.97;;
7017;SDS011;3549;42.162;24.726;2023-12-20T11:51:55;65.10;;;34.60;;
7017;SDS011;3549;42.162;24.726;2023-12-20T11:54:22;62.03;;;33.53;;
7017;SDS011;3549;42.162;24.726;2023-12-20T11:56:47;77.07;;;41.83;;
7017;SDS011;3549;42.162;24.726;2023-12-20T11:59:13;53.90;;;31.97;;
7017;SDS011;3549;42.162;24.726;2023-12-20T12:01:39;40.30;;;22.63;;
7017;SDS011;3549;42.162;24.726;2023-12-20T12:04:04;41.03;;;22.40;;
7017;SDS011;3549;42.162;24.726;2023-12-20T12:06:30;49.57;;;26.73;;
7017;SDS011;3549;42.162;24.726;2023-12-20T12:08:56;38.87;;;21.83;;
7017;SDS011;3549;42.162;24.726;2023-12-20T12:11:21;41.40;;;22.10;;
7017;SDS011;3549;42.162;24.726;2023-12-20T12:13:48;36.60;;;21.50;;
7017;SDS011;3549;42.162;24.726;2023-12-20T12:16:16;45.83;;;24.07;;
7017;SDS011;3549;42.162;24.726;2023-12-20T12:18:43;42.60;;;25.57;;
7017;SDS011;3549;42.162;24.726;2023-12-20T12:21:09;40.80;;;21.40;;
7017;SDS011;3549;42.162;24.726;2023-12-20T12:23:35;37.10;;;20.23;;
7017;SDS011;3549;42.162;24.726;2023-12-20T12:26:03;39.97;;;22.17;;
7017;SDS011;3549;42.162;24.726;2023-12-20T12:28:29;48.03;;;23.43;;
7017;SDS011;3549;42.162;24.726;2023-12-20T12:30:59;43.40;;;21.80;;
7017;SDS011;3549;42.162;24.726;2023-12-20T12:33:25;41.53;;;22.23;;
7017;SDS011;3549;42.162;24.726;2023-12-20T12:35:51;48.30;;;22.47;;
7017;SDS011;3549;42.162;24.726;2023-12-20T12:38:19;37.37;;;21.20;;
7017;SDS011;3549;42.162;24.726;2023-12-20T12:40:45;41.67;;;22.67;;
7017;SDS011;3549;42.162;24.726;2023-12-20T12:43:11;44.33;;;22.07;;
7017;SDS011;3549;42.162;24.726;2023-12-20T12:45:37;41.10;;;23.13;;
7017;SDS011;3549;42.162;24.726;2023-12-20T12:48:03;36.60;;;21.93;;
7017;SDS011;3549;42.162;24.726;2023-12-20T12:50:30;39.57;;;22.00;;
7017;SDS011;3549;42.162;24.726;2023-12-20T12:52:56;54.87;;;28.60;;
7017;SDS011;3549;42.162;24.726;2023-12-20T12:55:21;40.03;;;23.10;;
7017;SDS011;3549;42.162;24.726;2023-12-20T12:57:47;78.20;;;39.70;;
7017;SDS011;3549;42.162;24.726;2023-12-20T13:00:12;65.73;;;34.63;;
7017;SDS011;3549;42.162;24.726;2023-12-20T13:02:38;48.77;;;27.50;;
7017;SDS011;3549;42.162;24.726;2023-12-20T13:05:07;48.67;;;27.07;;
7017;SDS011;3549;42.162;24.726;2023-12-20T13:07:33;53.60;;;28.57;;
7017;SDS011;3549;42.162;24.726;2023-12-20T13:09:58;51.23;;;28.90;;
7017;SDS011;3549;42.162;24.726;2023-12-20T13:12:24;48.73;;;29.50;;
7017;SDS011;3549;42.162;24.726;2023-12-20T13:14:49;55.83;;;28.17;;
7017;SDS011;3549;42.162;24.726;2023-12-20T13:17:14;70.03;;;36.80;;
7017;SDS011;3549;42.162;24.726;2023-12-20T13:19:41;58.93;;;32.77;;
7017;SDS011;3549;42.162;24.726;2023-12-20T13:22:07;66.40;;;34.70;;
7017;SDS011;3549;42.162;24.726;2023-12-20T13:24:32;63.03;;;35.33;;
7017;SDS011;3549;42.162;24.726;2023-12-20T13:26:58;78.67;;;38.37;;
7017;SDS011;3549;42.162;24.726;2023-12-20T13:29:23;107.90;;;55.23;;
7017;SDS011;3549;42.162;24.726;2023-12-20T13:31:52;72.97;;;38.47;;
7017;SDS011;3549;42.162;24.726;2023-12-20T13:34:17;74.20;;;39.90;;
7017;SDS011;3549;42.162;24.726;2023-12-20T13:36:43;72.33;;;41.60;;
7017;SDS011;3549;42.162;24.726;2023-12-20T13:39:11;69.17;;;38.47;;
7017;SDS011;3549;42.162;24.726;2023-12-20T13:41:39;82.80;;;40.80;;
7017;SDS011;3549;42.162;24.726;2023-12-20T13:44:05;71.17;;;40.00;;
7017;SDS011;3549;42.162;24.726;2023-12-20T13:46:30;82.03;;;43.27;;
7017;SDS011;3549;42.162;24.726;2023-12-20T13:48:56;77.03;;;38.03;;
7017;SDS011;3549;42.162;24.726;2023-12-20T13:51:21;82.00;;;41.23;;
7017;SDS011;3549;42.162;24.726;2023-12-20T13:53:47;88.87;;;44.30;;
7017;SDS011;3549;42.162;24.726;2023-12-20T13:56:13;86.77;;;42.07;;
7017;SDS011;3549;42.162;24.726;2023-12-20T13:58:39;86.80;;;45.90;;
7017;SDS011;3549;42.162;24.726;2023-12-20T14:01:06;84.00;;;42.63;;
7017;SDS011;3549;42.162;24.726;2023-12-20T14:03:32;107.97;;;51.03;;
7017;SDS011;3549;42.162;24.726;2023-12-20T14:05:58;78.40;;;37.53;;
7017;SDS011;3549;42.162;24.726;2023-12-20T14:08:23;87.93;;;42.37;;
7017;SDS011;3549;42.162;24.726;2023-12-20T14:10:49;81.47;;;38.97;;
7017;SDS011;3549;42.162;24.726;2023-12-20T14:13:15;85.30;;;41.43;;
7017;SDS011;3549;42.162;24.726;2023-12-20T14:15:40;96.80;;;43.63;;
7017;SDS011;3549;42.162;24.726;2023-12-20T14:18:05;98.80;;;46.87;;
7017;SDS011;3549;42.162;24.726;2023-12-20T14:20:32;69.90;;;37.77;;
7017;SDS011;3549;42.162;24.726;2023-12-20T14:23:00;106.63;;;51.77;;
7017;SDS011;3549;42.162;24.726;2023-12-20T14:25:28;81.23;;;40.57;;
7017;SDS011;3549;42.162;24.726;2023-12-20T14:27:54;96.03;;;46.40;;
7017;SDS011;3549;42.162;24.726;2023-12-20T14:30:19;128.40;;;61.43;;
7017;SDS011;3549;42.162;24.726;2023-12-20T14:32:45;176.33;;;78.57;;
7017;SDS011;3549;42.162;24.726;2023-12-20T14:35:12;139.60;;;59.57;;